| time (UTC) | temp C | wind direction | speed KPH | gust KPH | rain 1hr cm | rain 24hr cm | rain mn cm | humidity % | barometer mb |
| 20260906230733 | 36 | 93 | 12.9 | 17.7 | 0.00 | 0.00 | 0.00 | 37 | 1012.6 |
| 20260906225734 | 36 | 108 | 6.4 | 9.7 | 0.00 | 0.00 | 0.00 | 38 | 1012.6 |
| 20260906223735 | 37 | 94 | 12.9 | 17.7 | 0.00 | 0.00 | 0.00 | 36 | 1012.6 |
| 20260906222833 | 37 | 107 | 4.8 | 6.4 | 0.00 | 0.00 | 0.00 | 36 | 1012.7 |
| 20260906221836 | 37 | 92 | 8.0 | 9.7 | 0.00 | 0.00 | 0.00 | 36 | 1012.8 |
| 20260906220834 | 37 | 125 | 6.4 | 12.9 | 0.00 | 0.00 | 0.00 | 37 | 1012.8 |
| 20260906214836 | 36 | 117 | 9.7 | 16.1 | 0.00 | 0.00 | 0.00 | 37 | 1013.1 |
| 20260906213835 | 36 | 45 | 8.0 | 11.3 | 0.00 | 0.00 | 0.00 | 38 | 1013.2 |
| 20260906211835 | 37 | 99 | 8.0 | 12.9 | 0.00 | 0.00 | 0.00 | 37 | 1013.5 |
| 20260906210834 | 37 | 129 | 6.4 | 11.3 | 0.00 | 0.00 | 0.00 | 37 | 1013.5 |
| 20260906205834 | 37 | 116 | 11.3 | 16.1 | 0.00 | 0.00 | 0.00 | 37 | 1013.6 |
| 20260906204933 | 37 | 105 | 11.3 | 16.1 | 0.00 | 0.00 | 0.00 | 37 | 1013.7 |
| 20260906203936 | 37 | 91 | 8.0 | 14.5 | 0.00 | 0.00 | 0.00 | 37 | 1013.8 |
| 20260906201934 | 36 | 96 | 11.3 | 17.7 | 0.00 | 0.00 | 0.00 | 39 | 1013.9 |
| 20260906200934 | 36 | 102 | 4.8 | 6.4 | 0.00 | 0.00 | 0.00 | 40 | 1014.1 |
| 20260906195935 | 36 | 93 | 9.7 | 14.5 | 0.00 | 0.00 | 0.00 | 40 | 1014.2 |
| 20260906195032 | 36 | 108 | 8.0 | 19.3 | 0.00 | 0.00 | 0.00 | 39 | 1014.2 |
| 20260906194036 | 36 | 156 | 11.3 | 19.3 | 0.00 | 0.00 | 0.00 | 40 | 1014.3 |
| 20260906191233 | 36 | 89 | 11.3 | 14.5 | 0.00 | 0.00 | 0.00 | 41 | 1014.7 |
| 20260906190235 | 36 | 96 | 11.3 | 19.3 | 0.00 | 0.00 | 0.00 | 41 | 1014.7 |
| 20260906185234 | 35 | 100 | 8.0 | 12.9 | 0.00 | 0.00 | 0.00 | 41 | 1014.9 |
| 20260906184333 | 35 | 101 | 8.0 | 12.9 | 0.00 | 0.00 | 0.00 | 41 | 1015.0 |
| 20260906183333 | 36 | 100 | 9.7 | 14.5 | 0.00 | 0.00 | 0.00 | 41 | 1015.1 |
| 20260906182333 | 35 | 95 | 4.8 | 9.7 | 0.00 | 0.00 | 0.00 | 42 | 1015.2 |
| 20260906181334 | 35 | 106 | 8.0 | 12.9 | 0.00 | 0.00 | 0.00 | 43 | 1015.4 |
| 20260906180335 | 35 | 133 | 11.3 | 17.7 | 0.00 | 0.00 | 0.00 | 43 | 1015.4 |
| 20260906175433 | 35 | 120 | 6.4 | 9.7 | 0.00 | 0.00 | 0.00 | 44 | 1015.6 |
| 20260906174433 | 35 | 90 | 3.2 | 4.8 | 0.00 | 0.00 | 0.00 | 45 | 1015.7 |
| 20260906173433 | 35 | 100 | 6.4 | 11.3 | 0.00 | 0.00 | 0.00 | 45 | 1016.0 |
| 20260906172532 | 34 | 83 | 11.3 | 16.1 | 0.00 | 0.00 | 0.00 | 46 | 1016.2 |
| 20260906171536 | 34 | 117 | 4.8 | 6.4 | 0.00 | 0.00 | 0.00 | 46 | 1016.2 |
| 20260906170633 | 35 | 104 | 8.0 | 11.3 | 0.00 | 0.00 | 0.00 | 46 | 1016.5 |
| 20260906165633 | 34 | 153 | 9.7 | 14.5 | 0.00 | 0.00 | 0.00 | 47 | 1016.5 |
| 20260906164636 | 34 | 77 | 8.0 | 9.7 | 0.00 | 0.00 | 0.00 | 49 | 1016.6 |
| 20260906163635 | 33 | 88 | 6.4 | 11.3 | 0.00 | 0.00 | 0.00 | 49 | 1016.5 |
| 20260906162635 | 33 | 61 | 9.7 | 14.5 | 0.00 | 0.00 | 0.00 | 50 | 1016.6 |
| 20260906160637 | 32 | 92 | 8.0 | 12.9 | 0.00 | 0.00 | 0.00 | 53 | 1016.5 |
| 20260906155734 | 32 | 83 | 6.4 | 11.3 | 0.00 | 0.00 | 0.00 | 53 | 1016.6 |
| 20260906154734 | 33 | 83 | 6.4 | 12.9 | 0.00 | 0.00 | 0.00 | 53 | 1016.7 |
| 20260906152733 | 32 | 86 | 6.4 | 8.0 | 0.00 | 0.00 | 0.00 | 57 | 1016.6 |
| 20260906151735 | 32 | 112 | 0.0 | 1.6 | 0.00 | 0.00 | 0.00 | 58 | 1016.4 |
| 20260906150734 | 31 | 67 | 3.2 | 6.4 | 0.00 | 0.00 | 0.00 | 59 | 1016.4 |
| 20260906145734 | 31 | 155 | 3.2 | 6.4 | 0.00 | 0.00 | 0.00 | 59 | 1016.4 |
| 20260906144735 | 31 | 157 | 0.0 | 1.6 | 0.00 | 0.00 | 0.00 | 60 | 1016.3 |
| 20260906143833 | 30 | 45 | 1.6 | 3.2 | 0.00 | 0.00 | 0.00 | 62 | 1016.2 |
| 20260906142835 | 30 | 114 | 0.0 | 0.0 | 0.00 | 0.00 | 0.00 | 63 | 1016.4 |
| 20260906141834 | 29 | 130 | 1.6 | 4.8 | 0.00 | 0.00 | 0.00 | 65 | 1016.3 |
| 20260906140833 | 29 | 123 | 1.6 | 4.8 | 0.00 | 0.00 | 0.00 | 66 | 1016.2 |
| 20260906135932 | 28 | 112 | 3.2 | 4.8 | 0.00 | 0.00 | 0.00 | 66 | 1016.3 |
| 20260906134934 | 28 | 135 | 0.0 | 3.2 | 0.00 | 0.00 | 0.00 | 67 | 1016.2 |
| 20260906132934 | 27 | 120 | 3.2 | 4.8 | 0.00 | 0.00 | 0.00 | 70 | 1016.0 |
| 20260906132032 | 27 | 99 | 4.8 | 6.4 | 0.00 | 0.00 | 0.00 | 71 | 1016.2 |
| 20260906131033 | 27 | 90 | 3.2 | 6.4 | 0.00 | 0.00 | 0.00 | 72 | 1016.2 |
| 20260906130036 | 26 | 92 | 3.2 | 6.4 | 0.00 | 0.00 | 0.00 | 73 | 1016.2 |
| 20260906125035 | 26 | 103 | 1.6 | 6.4 | 0.00 | 0.00 | 0.00 | 74 | 1016.0 |
| 20260906124133 | 26 | 99 | 4.8 | 6.4 | 0.00 | 0.00 | 0.00 | 74 | 1016.0 |
| 20260906123133 | 26 | 93 | 3.2 | 4.8 | 0.00 | 0.00 | 0.00 | 75 | 1016.0 |
| 20260906121134 | 26 | 113 | 1.6 | 3.2 | 0.00 | 0.00 | 0.00 | 75 | 1015.7 |
| 20260906120133 | 26 | 106 | 4.8 | 6.4 | 0.00 | 0.00 | 0.00 | 74 | 1015.6 |
| 20260906115135 | 26 | 112 | 1.6 | 3.2 | 0.00 | 0.00 | 0.00 | 74 | 1015.4 |
| 20260906114136 | 26 | 90 | 3.2 | 4.8 | 0.00 | 0.00 | 0.00 | 74 | 1015.3 |
| 20260906112134 | 26 | 135 | 3.2 | 4.8 | 0.00 | 0.00 | 0.00 | 74 | 1015.2 |
| 20260906111134 | 26 | 135 | 3.2 | 3.2 | 0.00 | 0.00 | 0.00 | 74 | 1015.2 |
| 20260906110135 | 26 | 151 | 3.2 | 4.8 | 0.00 | 0.00 | 0.00 | 74 | 1015.1 |
| 20260906105133 | 26 | 135 | 1.6 | 3.2 | 0.00 | 0.00 | 0.00 | 74 | 1015.0 |
| 20260906104135 | 26 | 90 | 1.6 | 3.2 | 0.00 | 0.00 | 0.00 | 74 | 1014.9 |
| 20260906103234 | 26 | 202 | 0.0 | 0.0 | 0.00 | 0.00 | 0.00 | 74 | 1015.0 |
| 20260906101334 | 26 | 157 | 0.0 | 0.0 | 0.00 | 0.00 | 0.00 | 74 | 1014.9 |
| 20260906100333 | 26 | 157 | 1.6 | 4.8 | 0.00 | 0.00 | 0.00 | 74 | 1014.6 |
| 20260906095335 | 26 | 180 | 4.8 | 6.4 | 0.00 | 0.00 | 0.00 | 74 | 1014.6 |
| 20260906094336 | 26 | 186 | 4.8 | 6.4 | 0.00 | 0.00 | 0.00 | 73 | 1014.5 |
| 20260906093433 | 26 | 164 | 3.2 | 4.8 | 0.00 | 0.00 | 0.00 | 73 | 1014.4 |
| 20260906092434 | 26 | 180 | 4.8 | 6.4 | 0.00 | 0.00 | 0.00 | 72 | 1014.3 |
| 20260906091433 | 26 | 180 | 3.2 | 6.4 | 0.00 | 0.00 | 0.00 | 72 | 1014.4 |
| 20260906090449 | 26 | 192 | 4.8 | 8.0 | 0.00 | 0.00 | 0.00 | 72 | 1014.3 |
| 20260906085433 | 26 | 183 | 6.4 | 9.7 | 0.00 | 0.00 | 0.00 | 72 | 1014.2 |
| 20260906084434 | 26 | 172 | 6.4 | 9.7 | 0.00 | 0.00 | 0.00 | 72 | 1014.2 |
| 20260906082534 | 27 | 191 | 8.0 | 11.3 | 0.00 | 0.00 | 0.00 | 70 | 1014.2 |
| 20260906081536 | 27 | 225 | 3.2 | 4.8 | 0.00 | 0.00 | 0.00 | 70 | 1014.2 |
| 20260906080534 | 27 | 186 | 6.4 | 8.0 | 0.00 | 0.00 | 0.00 | 70 | 1014.3 |
| 20260906075536 | 27 | 172 | 6.4 | 8.0 | 0.00 | 0.00 | 0.00 | 70 | 1014.6 |
| 20260906074534 | 27 | 175 | 1.6 | 4.8 | 0.00 | 0.00 | 0.00 | 69 | 1014.7 |
| 20260906073533 | 27 | 173 | 1.6 | 4.8 | 0.00 | 0.00 | 0.00 | 69 | 1014.7 |
| 20260906070551 | 28 | 187 | 6.4 | 9.7 | 0.00 | 0.00 | 0.00 | 68 | 1014.5 |
| 20260906065533 | 28 | 173 | 3.2 | 6.4 | 0.00 | 0.00 | 0.00 | 67 | 1014.6 |
| 20260906064535 | 28 | 159 | 8.0 | 12.9 | 0.00 | 0.00 | 0.00 | 67 | 1014.6 |
| 20260906063632 | 28 | 177 | 8.0 | 11.3 | 0.00 | 0.00 | 0.00 | 67 | 1014.7 |
| 20260906062635 | 28 | 176 | 4.8 | 6.4 | 0.00 | 0.00 | 0.00 | 67 | 1014.8 |
| 20260906061634 | 28 | 182 | 6.4 | 8.0 | 0.00 | 0.00 | 0.00 | 66 | 1014.8 |
| 20260906060635 | 28 | 181 | 6.4 | 9.7 | 0.00 | 0.00 | 0.00 | 66 | 1014.9 |
| 20260906055635 | 28 | 185 | 6.4 | 9.7 | 0.00 | 0.00 | 0.00 | 65 | 1014.8 |
| 20260906053636 | 28 | 186 | 4.8 | 6.4 | 0.00 | 0.00 | 0.00 | 64 | 1014.8 |
| 20260906052634 | 29 | 201 | 3.2 | 4.8 | 0.00 | 0.00 | 0.00 | 63 | 1014.8 |
| 20260906045640 | 30 | 169 | 9.7 | 12.9 | 0.00 | 0.00 | 0.00 | 62 | 1014.9 |
| 20260906043741 | 30 | 168 | 11.3 | 16.1 | 0.00 | 0.00 | 0.00 | 62 | 1014.7 |
| 20260906042741 | 30 | 160 | 4.8 | 11.3 | 0.00 | 0.00 | 0.00 | 62 | 1014.6 |
| 20260906041742 | 30 | 181 | 6.4 | 14.5 | 0.00 | 0.00 | 0.00 | 61 | 1014.6 |
| 20260906035742 | 30 | 163 | 6.4 | 9.7 | 0.00 | 0.00 | 0.00 | 61 | 1014.6 |
| 20260906034740 | 30 | 164 | 11.3 | 16.1 | 0.00 | 0.00 | 0.00 | 60 | 1014.5 |
| 20260906033742 | 30 | 141 | 4.8 | 6.4 | 0.00 | 0.00 | 0.00 | 60 | 1014.6 |
| 20260906032741 | 30 | 136 | 8.0 | 16.1 | 0.00 | 0.00 | 0.00 | 59 | 1014.8 |
| 20260906031744 | 31 | 136 | 9.7 | 14.5 | 0.00 | 0.00 | 0.00 | 58 | 1014.8 |
| 20260906030839 | 31 | 146 | 6.4 | 11.3 | 0.00 | 0.00 | 0.00 | 57 | 1014.7 |
| 20260906025840 | 31 | 127 | 6.4 | 8.0 | 0.00 | 0.00 | 0.00 | 56 | 1014.7 |
| 20260906024842 | 31 | 135 | 6.4 | 11.3 | 0.00 | 0.00 | 0.00 | 55 | 1014.5 |
| 20260906023841 | 31 | 105 | 4.8 | 8.0 | 0.00 | 0.00 | 0.00 | 54 | 1014.3 |
| 20260906022840 | 32 | 127 | 8.0 | 12.9 | 0.00 | 0.00 | 0.00 | 53 | 1014.1 |
| 20260906021841 | 32 | 107 | 8.0 | 12.9 | 0.00 | 0.00 | 0.00 | 51 | 1014.0 |
| 20260906015843 | 32 | 110 | 9.7 | 16.1 | 0.00 | 0.00 | 0.00 | 49 | 1013.6 |
| 20260906014843 | 33 | 128 | 9.7 | 19.3 | 0.00 | 0.00 | 0.00 | 48 | 1013.6 |
| 20260906013843 | 34 | 116 | 12.9 | 20.9 | 0.00 | 0.00 | 0.00 | 43 | 1013.3 |
| 20260906012839 | 34 | 124 | 8.0 | 11.3 | 0.00 | 0.00 | 0.00 | 42 | 1013.1 |
| 20260906005841 | 35 | 125 | 4.8 | 6.4 | 0.00 | 0.00 | 0.00 | 39 | 1012.7 |
| 20260906004841 | 35 | 130 | 6.4 | 9.7 | 0.00 | 0.00 | 0.00 | 38 | 1012.6 |
| 20260906001842 | 36 | 113 | 6.4 | 12.9 | 0.00 | 0.00 | 0.00 | 36 | 1012.7 |
| 20260906000940 | 36 | 101 | 8.0 | 11.3 | 0.00 | 0.00 | 0.00 | 36 | 1012.5 |
| 20260905235942 | 36 | 98 | 4.8 | 9.7 | 0.00 | 0.00 | 0.00 | 36 | 1012.4 |
| 20260905234941 | 36 | 130 | 6.4 | 8.0 | 0.00 | 0.00 | 0.00 | 36 | 1012.6 |
| 20260905233942 | 36 | 103 | 4.8 | 8.0 | 0.00 | 0.00 | 0.00 | 37 | 1012.4 |
| 20260905232941 | 36 | 91 | 4.8 | 8.0 | 0.00 | 0.00 | 0.00 | 36 | 1012.4 |
| 20260905232040 | 37 | 136 | 8.0 | 11.3 | 0.00 | 0.00 | 0.00 | 36 | 1012.4 |